Time;durP1;ratioP1;P1;durP2;ratioP2;P2;SDS_P1;SDS_P2;PMS_P1;PMS_P2;Temp;Humidity;BMP_temperature;BMP_pressure;BME280_temperature;BME280_humidity;BME280_pressure;Samples;Min_cycle;Max_cycle;Signal;HPM_P1;HPM_P2
2023/06/21 00:00:11;;;;;;;13.23;4.82;;;;;;;;;;5018363;28;20039;-48
2023/06/21 00:02:42;;;;;;;10.73;4.93;;;;;;;;;;5017847;28;20055;-51
2023/06/21 00:05:10;;;;;;;10.15;5.20;;;;;;;;;;5022652;28;20484;-47
2023/06/21 00:07:40;;;;;;;10.50;4.88;;;;;;;;;;5016384;28;20312;-53
2023/06/21 00:10:08;;;;;;;10.38;5.20;;;;;;;;;;5019271;28;20060;-50
2023/06/21 00:12:36;;;;;;;12.15;5.75;;;;;;;;;;5017084;28;20589;-47
2023/06/21 00:15:04;;;;;;;13.30;4.60;;;;;;;;;;5029921;28;20048;-50
2023/06/21 00:17:32;;;;;;;11.98;5.30;;;;;;;;;;5011959;28;20044;-47
2023/06/21 00:20:03;;;;;;;11.38;5.25;;;;;;;;;;5025480;28;20049;-49
2023/06/21 00:22:30;;;;;;;11.43;4.90;;;;;;;;;;5007758;28;20044;-49
2023/06/21 00:24:58;;;;;;;10.63;4.85;;;;;;;;;;5008528;28;20045;-48
2023/06/21 00:27:26;;;;;;;11.27;5.33;;;;;;;;;;5017105;28;20046;-46
2023/06/21 00:29:53;;;;;;;12.55;4.78;;;;;;;;;;5018899;28;20041;-51
2023/06/21 00:32:22;;;;;;;10.02;5.47;;;;;;;;;;5032452;28;20503;-50
2023/06/21 00:34:50;;;;;;;13.38;6.20;;;;;;;;;;5007237;28;20115;-48
2023/06/21 00:37:19;;;;;;;10.55;4.95;;;;;;;;;;5014476;28;20052;-45
2023/06/21 00:39:47;;;;;;;10.90;5.50;;;;;;;;;;5019794;28;20042;-46
2023/06/21 00:42:15;;;;;;;11.70;4.65;;;;;;;;;;5024107;28;20866;-48
2023/06/21 00:44:43;;;;;;;12.85;5.30;;;;;;;;;;5005798;28;20483;-46
2023/06/21 00:47:10;;;;;;;10.80;4.70;;;;;;;;;;5013857;28;20053;-46
2023/06/21 00:49:38;;;;;;;11.25;4.68;;;;;;;;;;5001124;28;20071;-47
2023/06/21 00:52:06;;;;;;;10.20;4.40;;;;;;;;;;5027737;28;20129;-45
2023/06/21 00:54:36;;;;;;;13.88;4.75;;;;;;;;;;5004870;28;20119;-45
2023/06/21 00:57:04;;;;;;;10.48;3.90;;;;;;;;;;5024475;28;20123;-45
2023/06/21 00:59:32;;;;;;;12.88;4.50;;;;;;;;;;5012761;28;20498;-45
2023/06/21 01:02:01;;;;;;;10.93;4.22;;;;;;;;;;5018282;28;20402;-48
2023/06/21 01:04:31;;;;;;;12.73;4.20;;;;;;;;;;5019817;28;20406;-48
2023/06/21 01:07:03;;;;;;;10.48;4.55;;;;;;;;;;5026474;28;20037;-47
2023/06/21 01:09:36;;;;;;;9.15;4.10;;;;;;;;;;5006129;28;20032;-47
2023/06/21 01:12:08;;;;;;;8.63;4.10;;;;;;;;;;5025753;28;20479;-47
2023/06/21 01:14:39;;;;;;;9.40;4.00;;;;;;;;;;5016280;28;20045;-46
2023/06/21 01:17:08;;;;;;;11.37;4.37;;;;;;;;;;5010549;28;20056;-48
2023/06/21 01:19:40;;;;;;;11.45;3.92;;;;;;;;;;5030538;28;20041;-46
2023/06/21 01:22:13;;;;;;;10.35;4.03;;;;;;;;;;5006769;28;20031;-50
2023/06/21 01:24:47;;;;;;;13.93;4.65;;;;;;;;;;5023703;28;20037;-46
2023/06/21 01:27:28;;;;;;;10.88;4.25;;;;;;;;;;5006432;28;20103;-46
2023/06/21 01:30:00;;;;;;;10.33;4.93;;;;;;;;;;5010791;28;20047;-47
2023/06/21 01:32:29;;;;;;;12.05;4.10;;;;;;;;;;5020474;28;20116;-45
2023/06/21 01:34:57;;;;;;;12.10;4.35;;;;;;;;;;5010958;28;20144;-49
2023/06/21 01:37:25;;;;;;;9.77;4.32;;;;;;;;;;4993063;28;20041;-46
2023/06/21 01:39:53;;;;;;;13.32;4.78;;;;;;;;;;5011749;28;20503;-46
2023/06/21 01:42:21;;;;;;;11.97;5.00;;;;;;;;;;5022288;28;20053;-45
2023/06/21 01:44:49;;;;;;;9.63;3.95;;;;;;;;;;5014034;28;20048;-48
2023/06/21 01:47:19;;;;;;;9.48;3.80;;;;;;;;;;5022024;28;20091;-47
2023/06/21 01:49:47;;;;;;;13.70;4.43;;;;;;;;;;5002849;28;20041;-47
2023/06/21 01:52:18;;;;;;;11.90;3.92;;;;;;;;;;5026353;28;20044;-45
2023/06/21 01:54:46;;;;;;;13.17;5.03;;;;;;;;;;4985599;28;20041;-45
2023/06/21 01:57:14;;;;;;;12.32;4.40;;;;;;;;;;5023646;28;20041;-45
2023/06/21 01:59:43;;;;;;;10.75;4.57;;;;;;;;;;5017909;28;20072;-48
2023/06/21 02:02:12;;;;;;;12.50;4.65;;;;;;;;;;5015569;28;20041;-45
2023/06/21 02:04:41;;;;;;;11.95;4.30;;;;;;;;;;5024024;28;20033;-45
2023/06/21 02:07:14;;;;;;;11.03;4.83;;;;;;;;;;5020373;28;20124;-45
2023/06/21 02:09:43;;;;;;;12.13;4.70;;;;;;;;;;4979240;28;20151;-47
2023/06/21 02:12:11;;;;;;;9.90;4.00;;;;;;;;;;5019125;28;20044;-47
2023/06/21 02:14:39;;;;;;;12.20;5.20;;;;;;;;;;5020059;28;20050;-45
2023/06/21 02:17:06;;;;;;;10.43;4.20;;;;;;;;;;5023953;28;20048;-47
2023/06/21 02:19:35;;;;;;;13.90;5.10;;;;;;;;;;5019882;28;20041;-45
2023/06/21 02:22:05;;;;;;;11.35;4.57;;;;;;;;;;5014920;28;20637;-49
2023/06/21 02:24:32;;;;;;;10.85;4.18;;;;;;;;;;5018636;28;20044;-47
2023/06/21 02:27:05;;;;;;;10.63;4.80;;;;;;;;;;5015867;28;20075;-51
2023/06/21 02:29:33;;;;;;;15.75;4.90;;;;;;;;;;5011617;28;20495;-47
2023/06/21 02:32:02;;;;;;;11.93;5.20;;;;;;;;;;5016134;28;20037;-51
2023/06/21 02:34:29;;;;;;;11.98;4.20;;;;;;;;;;5014715;28;20653;-47
2023/06/21 02:36:57;;;;;;;10.52;4.28;;;;;;;;;;5016751;28;20059;-43
2023/06/21 02:39:26;;;;;;;10.82;4.10;;;;;;;;;;5011467;28;20045;-45
2023/06/21 02:41:54;;;;;;;12.35;4.10;;;;;;;;;;5022597;28;20049;-44
2023/06/21 02:44:22;;;;;;;9.23;4.17;;;;;;;;;;5015657;28;20414;-46
2023/06/21 02:46:50;;;;;;;9.30;3.60;;;;;;;;;;5026824;28;20396;-49
2023/06/21 02:49:18;;;;;;;7.75;3.30;;;;;;;;;;5013901;28;20040;-46
2023/06/21 02:51:49;;;;;;;10.63;3.80;;;;;;;;;;5020355;28;20040;-46
2023/06/21 02:54:17;;;;;;;11.88;3.47;;;;;;;;;;5016763;28;20037;-45
2023/06/21 02:56:46;;;;;;;12.13;3.70;;;;;;;;;;5025340;28;20503;-49
2023/06/21 02:59:14;;;;;;;9.07;3.72;;;;;;;;;;5020883;28;20890;-44
2023/06/21 03:01:41;;;;;;;8.85;3.80;;;;;;;;;;5005889;28;20136;-46
2023/06/21 03:04:11;;;;;;;9.25;3.70;;;;;;;;;;5030102;28;20033;-47
2023/06/21 03:06:39;;;;;;;12.15;4.40;;;;;;;;;;5026347;28;20484;-47
2023/06/21 03:09:07;;;;;;;9.10;3.87;;;;;;;;;;5010377;28;20071;-48
2023/06/21 03:11:35;;;;;;;10.27;3.78;;;;;;;;;;5018539;28;20055;-48
2023/06/21 03:14:04;;;;;;;16.88;4.43;;;;;;;;;;5006347;28;20037;-45
2023/06/21 03:16:32;;;;;;;12.90;4.35;;;;;;;;;;5030373;28;20056;-47
2023/06/21 03:19:00;;;;;;;10.23;4.35;;;;;;;;;;5010533;28;21579;-47
2023/06/21 03:21:28;;;;;;;9.60;3.80;;;;;;;;;;4997562;28;20495;-47
2023/06/21 03:23:56;;;;;;;11.38;4.47;;;;;;;;;;5021442;28;20067;-45
2023/06/21 03:26:23;;;;;;;11.18;3.60;;;;;;;;;;5026449;28;20036;-47
2023/06/21 03:28:51;;;;;;;9.52;3.80;;;;;;;;;;4992042;28;20048;-51
2023/06/21 03:31:20;;;;;;;10.30;3.92;;;;;;;;;;5023394;28;20033;-46
2023/06/21 03:33:48;;;;;;;9.60;3.50;;;;;;;;;;5011089;28;20041;-46
2023/06/21 03:36:16;;;;;;;10.85;4.45;;;;;;;;;;5024118;28;20036;-47
2023/06/21 03:38:43;;;;;;;11.02;3.65;;;;;;;;;;5025620;28;20487;-48
2023/06/21 03:41:15;;;;;;;8.43;3.95;;;;;;;;;;5018912;28;20049;-48
2023/06/21 03:43:43;;;;;;;9.07;3.80;;;;;;;;;;5023523;28;20052;-50
2023/06/21 03:46:11;;;;;;;11.33;4.00;;;;;;;;;;5007842;28;20635;-46
2023/06/21 03:48:41;;;;;;;8.50;4.13;;;;;;;;;;5024708;28;20049;-48
2023/06/21 03:51:08;;;;;;;10.38;4.32;;;;;;;;;;5000884;28;20044;-47
2023/06/21 03:53:36;;;;;;;10.27;4.38;;;;;;;;;;5016438;28;20487;-46
2023/06/21 03:56:04;;;;;;;9.20;3.92;;;;;;;;;;5020533;28;20045;-46
2023/06/21 03:58:32;;;;;;;11.43;4.27;;;;;;;;;;5016016;28;20513;-45
2023/06/21 04:01:00;;;;;;;10.73;4.53;;;;;;;;;;5024325;28;20044;-51
2023/06/21 04:03:31;;;;;;;13.23;4.80;;;;;;;;;;5008033;28;20581;-46
2023/06/21 04:05:59;;;;;;;13.45;4.78;;;;;;;;;;5027838;28;20045;-48
2023/06/21 04:08:28;;;;;;;12.13;4.43;;;;;;;;;;5010748;28;20578;-51
2023/06/21 04:10:56;;;;;;;10.30;4.47;;;;;;;;;;5021519;28;20036;-45
2023/06/21 04:13:24;;;;;;;12.00;4.53;;;;;;;;;;5010637;28;20038;-46
2023/06/21 04:15:52;;;;;;;15.60;4.43;;;;;;;;;;5028225;28;20491;-46
2023/06/21 04:18:20;;;;;;;11.07;4.75;;;;;;;;;;5002048;28;20042;-46
2023/06/21 04:20:49;;;;;;;12.00;4.88;;;;;;;;;;5020347;28;20040;-50
2023/06/21 04:23:18;;;;;;;14.73;5.43;;;;;;;;;;5007857;28;20041;-50
2023/06/21 04:25:46;;;;;;;12.63;5.10;;;;;;;;;;5022309;28;20075;-48
2023/06/21 04:28:14;;;;;;;13.02;5.32;;;;;;;;;;5010217;28;20040;-46
2023/06/21 04:30:42;;;;;;;12.43;5.70;;;;;;;;;;5011256;28;20038;-46
2023/06/21 04:33:10;;;;;;;13.82;5.22;;;;;;;;;;4999534;28;20613;-47
2023/06/21 04:35:38;;;;;;;12.93;4.67;;;;;;;;;;5020040;28;20041;-46
2023/06/21 04:38:06;;;;;;;12.23;5.78;;;;;;;;;;5012099;28;20063;-47
2023/06/21 04:40:35;;;;;;;13.60;5.80;;;;;;;;;;5015020;28;20041;-46
2023/06/21 04:43:06;;;;;;;13.63;5.20;;;;;;;;;;5010837;28;20144;-46
2023/06/21 04:45:34;;;;;;;11.32;5.50;;;;;;;;;;5011579;28;20151;-46
2023/06/21 04:48:03;;;;;;;13.23;6.20;;;;;;;;;;5021140;28;20049;-45
2023/06/21 04:50:31;;;;;;;13.63;5.78;;;;;;;;;;5009466;28;20053;-46
2023/06/21 04:52:59;;;;;;;14.70;5.45;;;;;;;;;;5016725;28;20506;-46
2023/06/21 04:55:28;;;;;;;14.93;6.13;;;;;;;;;;5014141;28;20037;-48
2023/06/21 04:57:58;;;;;;;14.38;5.97;;;;;;;;;;5021758;28;20048;-46
2023/06/21 05:00:27;;;;;;;13.70;5.77;;;;;;;;;;5018338;28;20125;-51
2023/06/21 05:02:55;;;;;;;13.30;6.13;;;;;;;;;;5019793;28;20654;-47
2023/06/21 05:05:24;;;;;;;19.70;6.25;;;;;;;;;;5012862;28;20156;-47
2023/06/21 05:07:51;;;;;;;14.63;5.50;;;;;;;;;;5028798;28;20033;-45
2023/06/21 05:10:19;;;;;;;14.13;6.20;;;;;;;;;;5010217;28;20095;-48
2023/06/21 05:12:47;;;;;;;15.73;6.20;;;;;;;;;;5027856;28;20049;-48
2023/06/21 05:15:16;;;;;;;14.80;5.88;;;;;;;;;;5010829;28;20032;-47
2023/06/21 05:17:45;;;;;;;14.25;6.03;;;;;;;;;;5021568;28;20193;-46
2023/06/21 05:20:13;;;;;;;18.05;6.30;;;;;;;;;;4996494;28;20439;-48
2023/06/21 05:22:42;;;;;;;14.65;5.93;;;;;;;;;;5031944;28;20053;-49
2023/06/21 05:25:10;;;;;;;13.03;6.37;;;;;;;;;;5003783;28;20484;-46
2023/06/21 05:27:38;;;;;;;13.77;6.18;;;;;;;;;;5025423;28;20096;-47
2023/06/21 05:30:06;;;;;;;12.98;5.88;;;;;;;;;;5026197;28;20377;-47
2023/06/21 05:32:35;;;;;;;14.23;6.32;;;;;;;;;;5019955;28;20452;-50
2023/06/21 05:35:03;;;;;;;15.32;5.43;;;;;;;;;;5024420;28;20110;-47
2023/06/21 05:37:31;;;;;;;12.63;5.77;;;;;;;;;;5016512;28;20045;-46
2023/06/21 05:40:00;;;;;;;13.68;6.65;;;;;;;;;;5030079;28;20037;-46
2023/06/21 05:42:28;;;;;;;19.23;6.60;;;;;;;;;;5001189;28;20326;-48
2023/06/21 05:45:00;;;;;;;12.30;5.93;;;;;;;;;;5023933;28;20487;-48
2023/06/21 05:47:28;;;;;;;13.77;6.50;;;;;;;;;;5009443;28;20582;-50
2023/06/21 05:49:57;;;;;;;15.43;6.13;;;;;;;;;;5024735;28;20114;-48
2023/06/21 05:52:25;;;;;;;13.55;6.30;;;;;;;;;;5008174;28;20044;-46
2023/06/21 05:54:52;;;;;;;11.98;5.57;;;;;;;;;;5024688;28;20513;-49
2023/06/21 05:57:20;;;;;;;14.65;6.35;;;;;;;;;;5019179;28;20045;-46
2023/06/21 05:59:48;;;;;;;13.32;6.53;;;;;;;;;;5018964;28;20260;-49
2023/06/21 06:02:16;;;;;;;15.27;6.87;;;;;;;;;;5019970;28;20738;-45
2023/06/21 06:04:44;;;;;;;11.90;6.18;;;;;;;;;;5019916;28;20260;-52
2023/06/21 06:07:14;;;;;;;14.52;6.07;;;;;;;;;;5013298;28;20123;-47
2023/06/21 06:09:41;;;;;;;16.20;6.70;;;;;;;;;;5032238;28;20127;-45
2023/06/21 06:12:10;;;;;;;13.90;5.97;;;;;;;;;;4991206;28;20045;-46
2023/06/21 06:14:38;;;;;;;14.00;5.30;;;;;;;;;;5022724;28;20041;-48
2023/06/21 06:17:06;;;;;;;13.15;5.85;;;;;;;;;;5011752;28;20136;-49
2023/06/21 06:19:34;;;;;;;14.75;5.97;;;;;;;;;;5024320;28;20055;-48
2023/06/21 06:22:02;;;;;;;11.75;5.43;;;;;;;;;;5012112;28;20041;-47
2023/06/21 06:24:31;;;;;;;12.52;5.18;;;;;;;;;;5021989;28;20506;-48
2023/06/21 06:26:58;;;;;;;11.93;4.80;;;;;;;;;;5012853;28;20037;-48
2023/06/21 06:29:26;;;;;;;10.70;4.47;;;;;;;;;;5023905;28;20073;-51
2023/06/21 06:31:54;;;;;;;10.93;4.53;;;;;;;;;;5022114;28;20045;-48
2023/06/21 06:34:22;;;;;;;11.43;4.28;;;;;;;;;;5007812;28;20832;-46
2023/06/21 06:36:50;;;;;;;8.95;4.13;;;;;;;;;;5011335;28;20517;-48
2023/06/21 06:39:39;;;;;;;8.47;3.80;;;;;;;;;;5027306;28;20107;-52
2023/06/21 06:42:06;;;;;;;16.95;4.28;;;;;;;;;;5006324;28;20053;-52
2023/06/21 06:44:34;;;;;;;10.05;3.30;;;;;;;;;;5009502;28;20049;-52
2023/06/21 06:47:03;;;;;;;9.38;4.10;;;;;;;;;;5018361;28;20434;-50
2023/06/21 06:49:30;;;;;;;10.98;4.15;;;;;;;;;;5024288;28;20036;-48
2023/06/21 06:51:58;;;;;;;8.83;4.00;;;;;;;;;;5006483;28;20045;-54
2023/06/21 06:54:26;;;;;;;18.85;4.25;;;;;;;;;;5016493;28;20491;-47
2023/06/21 06:56:55;;;;;;;9.73;3.28;;;;;;;;;;5016856;28;20491;-48
2023/06/21 06:59:23;;;;;;;11.65;3.50;;;;;;;;;;5023232;28;20375;-48
2023/06/21 07:01:55;;;;;;;9.30;3.65;;;;;;;;;;5019335;28;20461;-56
2023/06/21 07:04:25;;;;;;;9.57;3.43;;;;;;;;;;5016492;28;20049;-52
2023/06/21 07:06:53;;;;;;;11.82;3.80;;;;;;;;;;5021451;28;20045;-50
2023/06/21 07:09:21;;;;;;;10.93;4.00;;;;;;;;;;5010439;28;20561;-48
2023/06/21 07:11:49;;;;;;;10.20;4.25;;;;;;;;;;5019740;28;20048;-48
2023/06/21 07:14:18;;;;;;;9.20;4.35;;;;;;;;;;5012263;28;20590;-52
2023/06/21 07:16:49;;;;;;;9.17;4.47;;;;;;;;;;5021335;28;20058;-50
2023/06/21 07:19:17;;;;;;;9.43;4.43;;;;;;;;;;5012168;28;20056;-50
2023/06/21 07:21:45;;;;;;;12.27;4.60;;;;;;;;;;5015022;28;20714;-48
2023/06/21 07:24:13;;;;;;;9.05;4.15;;;;;;;;;;5028463;28;20041;-51
2023/06/21 07:26:41;;;;;;;10.25;4.20;;;;;;;;;;5018099;28;20038;-51
2023/06/21 07:29:11;;;;;;;11.47;4.93;;;;;;;;;;5023120;28;20116;-49
2023/06/21 07:31:40;;;;;;;9.48;4.65;;;;;;;;;;5017328;28;20055;-51
2023/06/21 07:34:08;;;;;;;11.70;4.75;;;;;;;;;;5017205;28;20124;-52
2023/06/21 07:36:37;;;;;;;8.50;4.30;;;;;;;;;;5019055;28;20127;-48
2023/06/21 07:39:08;;;;;;;9.18;4.25;;;;;;;;;;5007812;28;20049;-53
2023/06/21 07:41:36;;;;;;;10.07;4.40;;;;;;;;;;5025202;28;20045;-52
2023/06/21 07:44:03;;;;;;;10.57;4.20;;;;;;;;;;4984104;28;20072;-55
2023/06/21 07:46:31;;;;;;;10.55;4.03;;;;;;;;;;5022558;28;20414;-53
2023/06/21 07:49:00;;;;;;;8.93;3.95;;;;;;;;;;5002032;28;20053;-49
2023/06/21 07:51:28;;;;;;;9.57;4.30;;;;;;;;;;5015517;28;20045;-56
2023/06/21 07:53:57;;;;;;;10.63;4.07;;;;;;;;;;5007617;28;20113;-51
2023/06/21 07:56:25;;;;;;;8.63;4.57;;;;;;;;;;5021981;28;20226;-51
2023/06/21 07:58:53;;;;;;;9.75;3.70;;;;;;;;;;5027229;28;20043;-55
2023/06/21 08:01:21;;;;;;;9.15;4.22;;;;;;;;;;5008552;28;21907;-53
2023/06/21 08:03:49;;;;;;;10.90;5.10;;;;;;;;;;5013114;28;21261;-50
2023/06/21 08:06:18;;;;;;;9.57;4.40;;;;;;;;;;5017087;28;20037;-54
2023/06/21 08:08:45;;;;;;;9.57;4.35;;;;;;;;;;5000153;28;20956;-51
2023/06/21 08:11:13;;;;;;;9.20;4.20;;;;;;;;;;5018637;28;20059;-52
2023/06/21 08:13:41;;;;;;;12.45;4.75;;;;;;;;;;5019248;28;20120;-53
2023/06/21 08:16:09;;;;;;;13.38;4.57;;;;;;;;;;5020577;28;20091;-53
2023/06/21 08:18:36;;;;;;;8.80;3.60;;;;;;;;;;5003876;28;20493;-52
2023/06/21 08:21:05;;;;;;;7.95;3.28;;;;;;;;;;5018950;28;20045;-55
2023/06/21 08:23:34;;;;;;;8.30;3.55;;;;;;;;;;5010837;28;20120;-52
2023/06/21 08:26:03;;;;;;;11.77;3.97;;;;;;;;;;5011716;28;20144;-50
2023/06/21 08:28:31;;;;;;;9.77;4.57;;;;;;;;;;5012192;28;20067;-50
2023/06/21 08:30:59;;;;;;;9.53;3.70;;;;;;;;;;4975396;28;20064;-53
2023/06/21 08:33:27;;;;;;;7.20;3.05;;;;;;;;;;5012079;28;20164;-52
2023/06/21 08:35:55;;;;;;;7.72;3.20;;;;;;;;;;5002683;28;20074;-53
2023/06/21 08:38:22;;;;;;;8.40;3.60;;;;;;;;;;5017302;28;20378;-54
2023/06/21 08:40:58;;;;;;;6.35;3.00;;;;;;;;;;5001080;28;20065;-49
2023/06/21 08:43:26;;;;;;;7.27;3.00;;;;;;;;;;5005638;28;20057;-52
2023/06/21 08:45:55;;;;;;;9.57;2.92;;;;;;;;;;5010385;28;20033;-54
2023/06/21 08:48:23;;;;;;;8.13;2.70;;;;;;;;;;5006426;28;22288;-51
2023/06/21 08:50:50;;;;;;;8.43;2.85;;;;;;;;;;4995728;28;20426;-55
2023/06/21 08:53:21;;;;;;;7.72;2.90;;;;;;;;;;4998442;28;20857;-55
2023/06/21 08:55:49;;;;;;;9.00;2.90;;;;;;;;;;5011617;28;20131;-53
2023/06/21 08:58:22;;;;;;;8.07;2.83;;;;;;;;;;5004530;28;20539;-48
2023/06/21 09:00:51;;;;;;;5.90;2.45;;;;;;;;;;5026814;28;20665;-47
2023/06/21 09:03:22;;;;;;;6.25;2.30;;;;;;;;;;5013574;28;20183;-49
2023/06/21 09:05:51;;;;;;;6.03;2.15;;;;;;;;;;5031656;28;20446;-47
2023/06/21 09:08:19;;;;;;;6.47;2.20;;;;;;;;;;5020160;28;20041;-51
2023/06/21 09:10:48;;;;;;;5.90;2.10;;;;;;;;;;5024412;28;20507;-47
2023/06/21 09:13:18;;;;;;;7.75;2.08;;;;;;;;;;5016318;28;21459;-48
2023/06/21 09:15:48;;;;;;;4.93;1.90;;;;;;;;;;5028554;28;20037;-47
2023/06/21 09:18:16;;;;;;;6.70;2.28;;;;;;;;;;5013865;28;20048;-49
2023/06/21 09:20:46;;;;;;;7.50;2.27;;;;;;;;;;5024694;28;20056;-47
2023/06/21 09:23:14;;;;;;;6.15;1.98;;;;;;;;;;5017983;28;20041;-58
2023/06/21 09:25:44;;;;;;;6.30;2.05;;;;;;;;;;5024877;28;20037;-52
2023/06/21 09:28:12;;;;;;;5.50;2.10;;;;;;;;;;5023897;28;20597;-53
2023/06/21 09:30:41;;;;;;;5.55;2.38;;;;;;;;;;5017931;28;20052;-52
2023/06/21 09:33:10;;;;;;;6.50;2.30;;;;;;;;;;5002041;28;20029;-55
2023/06/21 09:35:40;;;;;;;5.93;2.33;;;;;;;;;;5023721;28;20399;-50
2023/06/21 09:38:20;;;;;;;7.75;2.55;;;;;;;;;;5020599;28;20044;-49
2023/06/21 09:40:47;;;;;;;6.22;2.25;;;;;;;;;;5019360;28;20556;-50
2023/06/21 09:43:16;;;;;;;5.80;2.10;;;;;;;;;;5014687;28;20115;-51
2023/06/21 09:45:58;;;;;;;5.87;2.30;;;;;;;;;;5016977;28;20049;-51
2023/06/21 09:48:26;;;;;;;5.28;2.38;;;;;;;;;;5026382;28;20052;-49
2023/06/21 09:50:54;;;;;;;5.55;1.90;;;;;;;;;;5016888;28;20557;-49
2023/06/21 09:53:23;;;;;;;6.38;2.35;;;;;;;;;;5020308;28;20748;-49
2023/06/21 09:55:51;;;;;;;5.72;1.75;;;;;;;;;;5019289;28;20406;-52
2023/06/21 09:58:20;;;;;;;5.60;1.60;;;;;;;;;;5021817;28;20059;-52
2023/06/21 10:00:49;;;;;;;5.53;1.73;;;;;;;;;;5015672;28;20045;-50
2023/06/21 10:03:22;;;;;;;6.28;2.08;;;;;;;;;;5020189;28;20384;-47
2023/06/21 10:05:55;;;;;;;5.78;1.80;;;;;;;;;;5025400;28;20044;-48
2023/06/21 10:08:23;;;;;;;5.13;2.20;;;;;;;;;;5011939;28;20052;-46
2023/06/21 10:10:51;;;;;;;6.23;2.10;;;;;;;;;;5022794;28;20042;-49
2023/06/21 10:13:24;;;;;;;5.43;1.80;;;;;;;;;;5013625;28;20535;-48
2023/06/21 10:15:54;;;;;;;5.57;1.73;;;;;;;;;;5021632;28;20041;-50
2023/06/21 10:18:22;;;;;;;5.32;1.90;;;;;;;;;;5017535;28;20044;-52
2023/06/21 10:20:52;;;;;;;5.47;2.00;;;;;;;;;;5025461;28;20061;-51
2023/06/21 10:23:21;;;;;;;5.87;2.20;;;;;;;;;;5014745;28;20812;-50
2023/06/21 10:25:51;;;;;;;6.05;1.95;;;;;;;;;;5013350;28;20049;-54
2023/06/21 10:28:20;;;;;;;5.57;1.58;;;;;;;;;;5018757;28;20036;-51
2023/06/21 10:30:51;;;;;;;7.07;2.05;;;;;;;;;;5017939;28;20123;-49
2023/06/21 10:33:20;;;;;;;5.28;2.10;;;;;;;;;;5018293;28;20610;-53
2023/06/21 10:35:52;;;;;;;5.47;1.50;;;;;;;;;;5010005;28;20044;-49
2023/06/21 10:38:25;;;;;;;4.47;1.77;;;;;;;;;;5015712;28;20077;-52
2023/06/21 10:40:53;;;;;;;5.78;1.85;;;;;;;;;;5014797;28;20064;-53
2023/06/21 10:43:21;;;;;;;5.28;1.83;;;;;;;;;;5017633;28;20049;-52
2023/06/21 10:45:50;;;;;;;4.18;1.67;;;;;;;;;;5013097;28;20049;-47
2023/06/21 10:48:21;;;;;;;4.57;1.57;;;;;;;;;;5018447;28;20151;-48
2023/06/21 10:50:49;;;;;;;7.00;2.13;;;;;;;;;;5015444;28;20499;-50
2023/06/21 10:53:18;;;;;;;5.25;2.00;;;;;;;;;;5021534;28;20550;-50
2023/06/21 10:55:49;;;;;;;5.75;1.65;;;;;;;;;;5015760;28;20111;-46
2023/06/21 10:58:17;;;;;;;5.18;1.77;;;;;;;;;;5012104;28;20132;-48
2023/06/21 11:00:47;;;;;;;4.50;1.97;;;;;;;;;;5031338;28;20041;-50
2023/06/21 11:03:23;;;;;;;5.60;1.98;;;;;;;;;;5003137;28;20048;-50
2023/06/21 11:05:55;;;;;;;5.80;1.67;;;;;;;;;;5013764;28;20510;-48
2023/06/21 11:08:31;;;;;;;5.50;2.10;;;;;;;;;;5016518;28;20309;-50
2023/06/21 11:10:59;;;;;;;5.50;2.03;;;;;;;;;;5026865;28;20418;-48
2023/06/21 11:13:34;;;;;;;5.40;2.10;;;;;;;;;;5020230;28;20039;-52
2023/06/21 11:16:13;;;;;;;4.88;2.10;;;;;;;;;;5016929;28;20482;-54
2023/06/21 11:18:43;;;;;;;4.97;1.85;;;;;;;;;;5022140;28;20049;-53
2023/06/21 11:21:12;;;;;;;6.28;1.95;;;;;;;;;;5016800;28;20479;-49
2023/06/21 11:23:58;;;;;;;7.15;1.90;;;;;;;;;;5017717;28;20503;-49
2023/06/21 11:26:26;;;;;;;6.00;2.20;;;;;;;;;;5002175;28;20034;-48
2023/06/21 11:28:55;;;;;;;5.22;2.33;;;;;;;;;;5024735;28;20041;-52
2023/06/21 11:31:24;;;;;;;5.65;2.13;;;;;;;;;;5010239;28;20041;-47
2023/06/21 11:33:53;;;;;;;5.90;2.17;;;;;;;;;;5018125;28;20038;-47
2023/06/21 11:36:27;;;;;;;4.82;2.00;;;;;;;;;;5010654;28;20042;-48
2023/06/21 11:39:15;;;;;;;4.83;1.80;;;;;;;;;;5002840;28;20120;-51
2023/06/21 11:42:03;;;;;;;6.00;2.25;;;;;;;;;;5023542;28;20107;-56
2023/06/21 11:44:32;;;;;;;6.57;2.63;;;;;;;;;;5023488;28;20053;-55
2023/06/21 11:47:06;;;;;;;5.05;2.05;;;;;;;;;;5026352;28;20132;-53
2023/06/21 11:49:34;;;;;;;7.97;2.47;;;;;;;;;;5025161;28;20041;-53
2023/06/21 11:52:05;;;;;;;6.00;2.33;;;;;;;;;;5009430;28;20087;-54
2023/06/21 11:54:33;;;;;;;6.40;2.50;;;;;;;;;;5006280;28;20629;-55
2023/06/21 11:57:03;;;;;;;7.50;2.20;;;;;;;;;;5021144;28;20042;-51
2023/06/21 11:59:32;;;;;;;6.32;2.40;;;;;;;;;;5013411;28;20037;-55
2023/06/21 12:02:03;;;;;;;6.50;2.13;;;;;;;;;;5011405;28;20048;-53
2023/06/21 12:04:31;;;;;;;5.37;2.30;;;;;;;;;;5015073;28;20046;-49
2023/06/21 12:06:58;;;;;;;7.72;2.10;;;;;;;;;;5015360;28;20124;-53
2023/06/21 12:09:27;;;;;;;7.43;2.30;;;;;;;;;;5023337;28;20045;-53
2023/06/21 12:11:55;;;;;;;5.22;1.70;;;;;;;;;;5018891;28;20033;-53
2023/06/21 12:14:23;;;;;;;5.85;2.40;;;;;;;;;;5018745;28;20037;-50
2023/06/21 12:16:51;;;;;;;6.43;2.53;;;;;;;;;;5019474;28;20521;-53
2023/06/21 12:19:21;;;;;;;5.93;2.45;;;;;;;;;;5007670;28;20042;-52
2023/06/21 12:21:49;;;;;;;5.45;2.15;;;;;;;;;;5009076;28;20051;-55
2023/06/21 12:24:25;;;;;;;6.70;2.35;;;;;;;;;;5016343;28;20419;-57
2023/06/21 12:26:56;;;;;;;5.70;2.55;;;;;;;;;;5020909;28;20522;-47
2023/06/21 12:29:28;;;;;;;5.20;1.80;;;;;;;;;;5016438;28;20463;-48
2023/06/21 12:31:57;;;;;;;5.43;2.60;;;;;;;;;;5013292;28;20041;-50
2023/06/21 12:34:25;;;;;;;5.85;2.33;;;;;;;;;;5014994;28;20607;-47
2023/06/21 12:36:58;;;;;;;5.00;2.22;;;;;;;;;;5027602;28;20688;-50
2023/06/21 12:39:26;;;;;;;5.88;2.03;;;;;;;;;;5013070;28;20041;-51
2023/06/21 12:41:55;;;;;;;5.60;2.43;;;;;;;;;;5016911;28;20534;-51
2023/06/21 12:44:24;;;;;;;5.95;2.42;;;;;;;;;;5013051;28;20047;-49
2023/06/21 12:46:52;;;;;;;5.72;2.55;;;;;;;;;;5022144;28;20051;-51
2023/06/21 12:49:22;;;;;;;7.07;2.30;;;;;;;;;;5020899;28;20117;-47
2023/06/21 12:51:50;;;;;;;5.40;2.60;;;;;;;;;;5009947;28;20041;-48
2023/06/21 12:54:19;;;;;;;5.97;2.37;;;;;;;;;;5008195;28;20041;-51
2023/06/21 12:56:49;;;;;;;6.28;2.53;;;;;;;;;;5014818;28;20193;-49
2023/06/21 12:59:18;;;;;;;5.07;2.33;;;;;;;;;;5022467;28;20037;-48
2023/06/21 13:01:46;;;;;;;6.65;2.95;;;;;;;;;;5013080;28;20060;-49
2023/06/21 13:04:15;;;;;;;5.43;2.33;;;;;;;;;;5013210;28;20533;-47
2023/06/21 13:06:43;;;;;;;5.73;2.90;;;;;;;;;;5025973;28;20080;-50
2023/06/21 13:09:11;;;;;;;6.13;2.60;;;;;;;;;;5012063;28;20065;-51
2023/06/21 13:11:39;;;;;;;4.95;2.03;;;;;;;;;;5008864;28;20040;-48
2023/06/21 13:14:08;;;;;;;5.85;2.65;;;;;;;;;;5013803;28;20090;-49
2023/06/21 13:16:38;;;;;;;6.35;2.53;;;;;;;;;;5008842;28;20045;-52
2023/06/21 13:19:07;;;;;;;4.90;2.17;;;;;;;;;;5012247;28;20037;-49
2023/06/21 13:21:36;;;;;;;6.00;2.97;;;;;;;;;;5013154;28;20144;-50
2023/06/21 13:24:04;;;;;;;6.10;2.72;;;;;;;;;;5027383;28;20044;-49
2023/06/21 13:26:32;;;;;;;6.57;2.50;;;;;;;;;;5005638;28;20045;-49
2023/06/21 13:29:00;;;;;;;6.03;3.05;;;;;;;;;;5019590;28;20045;-49
2023/06/21 13:31:28;;;;;;;6.30;2.80;;;;;;;;;;5009411;28;20561;-48
2023/06/21 13:33:57;;;;;;;6.75;2.53;;;;;;;;;;5017245;28;20272;-47
2023/06/21 13:36:26;;;;;;;7.57;3.13;;;;;;;;;;5018163;28;20044;-47
2023/06/21 13:38:54;;;;;;;6.40;2.47;;;;;;;;;;5019229;28;20041;-50
2023/06/21 13:41:22;;;;;;;6.68;3.22;;;;;;;;;;5023943;28;20860;-50
2023/06/21 13:43:50;;;;;;;7.43;3.03;;;;;;;;;;5014153;28;20064;-50
2023/06/21 13:46:18;;;;;;;8.10;3.42;;;;;;;;;;5015757;28;20049;-50
2023/06/21 13:48:46;;;;;;;7.88;2.90;;;;;;;;;;5018195;28;20064;-48
2023/06/21 13:51:15;;;;;;;8.05;3.65;;;;;;;;;;5004930;28;20033;-52
2023/06/21 13:53:44;;;;;;;7.22;3.17;;;;;;;;;;5016334;28;20042;-50
2023/06/21 13:56:12;;;;;;;9.13;3.70;;;;;;;;;;5011270;28;20048;-53
2023/06/21 13:58:40;;;;;;;7.60;3.78;;;;;;;;;;5024665;28;20041;-54
2023/06/21 14:01:08;;;;;;;7.35;3.17;;;;;;;;;;5013209;28;20060;-49
2023/06/21 14:03:36;;;;;;;8.77;3.60;;;;;;;;;;5018223;28;20116;-51
2023/06/21 14:06:04;;;;;;;9.05;3.53;;;;;;;;;;5018814;28;20041;-49
2023/06/21 14:08:34;;;;;;;7.60;4.23;;;;;;;;;;5019573;28;20042;-47
2023/06/21 14:11:03;;;;;;;7.90;3.97;;;;;;;;;;5029579;28;20052;-54
2023/06/21 14:13:30;;;;;;;6.72;2.90;;;;;;;;;;5013276;28;20055;-55
2023/06/21 14:15:58;;;;;;;6.40;3.35;;;;;;;;;;5031020;28;20044;-49
2023/06/21 14:18:26;;;;;;;7.85;3.47;;;;;;;;;;5016358;28;20064;-46
2023/06/21 14:21:13;;;;;;;10.67;3.90;;;;;;;;;;5019898;28;20040;-48
2023/06/21 14:23:43;;;;;;;6.78;3.30;;;;;;;;;;5029121;28;20505;-47
2023/06/21 14:26:13;;;;;;;7.53;4.03;;;;;;;;;;5023740;28;20495;-48
2023/06/21 14:28:43;;;;;;;10.57;3.55;;;;;;;;;;5050279;28;20037;-51
2023/06/21 14:31:11;;;;;;;7.28;3.75;;;;;;;;;;5016697;28;20077;-48
2023/06/21 14:33:39;;;;;;;8.57;3.80;;;;;;;;;;5018450;28;20057;-48
2023/06/21 14:36:08;;;;;;;9.73;3.88;;;;;;;;;;5010464;28;20221;-49
2023/06/21 14:38:36;;;;;;;8.10;3.42;;;;;;;;;;5027108;28;20041;-52
2023/06/21 14:41:05;;;;;;;8.23;3.75;;;;;;;;;;5024262;28;20102;-51
2023/06/21 14:43:33;;;;;;;7.40;3.67;;;;;;;;;;5021057;28;20056;-51
2023/06/21 14:46:01;;;;;;;6.93;3.27;;;;;;;;;;5013183;28;22025;-51
2023/06/21 14:48:34;;;;;;;9.70;3.40;;;;;;;;;;5020324;28;20044;-53